sensor_id;sensor_type;location;lat;lon;timestamp;temperature;humidity
31809;DHT22;18379;48.208;-1.518;2023-02-11T00:04:33;6.60;99.90
31809;DHT22;18379;48.208;-1.518;2023-02-11T00:09:34;6.30;99.90
31809;DHT22;18379;48.208;-1.518;2023-02-11T00:14:34;6.20;99.90
31809;DHT22;18379;48.208;-1.518;2023-02-11T00:19:35;6.00;99.90
31809;DHT22;18379;48.208;-1.518;2023-02-11T00:24:36;5.80;99.90
31809;DHT22;18379;48.208;-1.518;2023-02-11T00:29:37;5.80;99.90
31809;DHT22;18379;48.208;-1.518;2023-02-11T00:34:38;5.70;99.90
31809;DHT22;18379;48.208;-1.518;2023-02-11T00:39:39;5.60;99.90
31809;DHT22;18379;48.208;-1.518;2023-02-11T00:44:40;5.60;99.90
31809;DHT22;18379;48.208;-1.518;2023-02-11T00:49:41;5.60;99.90
31809;DHT22;18379;48.208;-1.518;2023-02-11T00:54:41;5.50;99.90
31809;DHT22;18379;48.208;-1.518;2023-02-11T00:59:42;5.40;99.90
31809;DHT22;18379;48.208;-1.518;2023-02-11T01:04:43;5.30;99.90
31809;DHT22;18379;48.208;-1.518;2023-02-11T01:09:44;5.10;99.90
31809;DHT22;18379;48.208;-1.518;2023-02-11T01:14:45;5.00;99.90
31809;DHT22;18379;48.208;-1.518;2023-02-11T01:19:46;4.90;99.90
31809;DHT22;18379;48.208;-1.518;2023-02-11T01:24:46;4.80;99.90
31809;DHT22;18379;48.208;-1.518;2023-02-11T01:29:47;4.80;99.90
31809;DHT22;18379;48.208;-1.518;2023-02-11T01:34:48;4.80;99.90
31809;DHT22;18379;48.208;-1.518;2023-02-11T01:39:49;4.70;99.90
31809;DHT22;18379;48.208;-1.518;2023-02-11T01:44:52;4.70;99.90
31809;DHT22;18379;48.208;-1.518;2023-02-11T01:49:56;4.60;99.90
31809;DHT22;18379;48.208;-1.518;2023-02-11T01:55:01;4.50;99.90
31809;DHT22;18379;48.208;-1.518;2023-02-11T02:00:36;4.50;99.90
31809;DHT22;18379;48.208;-1.518;2023-02-11T02:10:47;4.50;99.90
31809;DHT22;18379;48.208;-1.518;2023-02-11T02:37:53;4.40;99.90
31809;DHT22;18379;48.208;-1.518;2023-02-11T02:42:55;4.50;99.90
31809;DHT22;18379;48.208;-1.518;2023-02-11T02:47:57;4.50;99.90
31809;DHT22;18379;48.208;-1.518;2023-02-11T02:53:08;4.50;99.90
31809;DHT22;18379;48.208;-1.518;2023-02-11T02:58:34;4.40;99.90
31809;DHT22;18379;48.208;-1.518;2023-02-11T03:03:51;4.40;99.90
31809;DHT22;18379;48.208;-1.518;2023-02-11T03:14:24;4.40;99.90
31809;DHT22;18379;48.208;-1.518;2023-02-11T03:19:34;4.40;99.90
31809;DHT22;18379;48.208;-1.518;2023-02-11T03:24:38;4.30;99.90
31809;DHT22;18379;48.208;-1.518;2023-02-11T03:35:23;4.20;99.90
31809;DHT22;18379;48.208;-1.518;2023-02-11T03:40:28;4.20;99.90
31809;DHT22;18379;48.208;-1.518;2023-02-11T03:45:32;4.10;99.90
31809;DHT22;18379;48.208;-1.518;2023-02-11T03:50:35;4.00;99.90
31809;DHT22;18379;48.208;-1.518;2023-02-11T03:55:38;3.90;99.90
31809;DHT22;18379;48.208;-1.518;2023-02-11T04:00:41;3.90;99.90
31809;DHT22;18379;48.208;-1.518;2023-02-11T04:05:42;3.80;99.90
31809;DHT22;18379;48.208;-1.518;2023-02-11T04:10:42;3.80;99.90
31809;DHT22;18379;48.208;-1.518;2023-02-11T04:15:43;3.70;99.90
31809;DHT22;18379;48.208;-1.518;2023-02-11T04:20:44;3.70;99.90
31809;DHT22;18379;48.208;-1.518;2023-02-11T04:25:45;3.70;99.90
31809;DHT22;18379;48.208;-1.518;2023-02-11T04:30:48;3.60;99.90
31809;DHT22;18379;48.208;-1.518;2023-02-11T04:35:50;3.50;99.90
31809;DHT22;18379;48.208;-1.518;2023-02-11T04:40:50;3.50;99.90
31809;DHT22;18379;48.208;-1.518;2023-02-11T04:45:52;3.40;99.90
31809;DHT22;18379;48.208;-1.518;2023-02-11T04:50:55;3.30;99.90
31809;DHT22;18379;48.208;-1.518;2023-02-11T04:55:56;3.30;99.90
31809;DHT22;18379;48.208;-1.518;2023-02-11T05:01:11;3.20;99.90
31809;DHT22;18379;48.208;-1.518;2023-02-11T05:06:12;3.10;99.90
31809;DHT22;18379;48.208;-1.518;2023-02-11T05:11:19;3.10;99.90
31809;DHT22;18379;48.208;-1.518;2023-02-11T05:16:20;3.10;99.90
31809;DHT22;18379;48.208;-1.518;2023-02-11T05:21:21;3.10;99.90
31809;DHT22;18379;48.208;-1.518;2023-02-11T05:26:22;3.00;99.90
31809;DHT22;18379;48.208;-1.518;2023-02-11T05:31:23;3.00;99.90
31809;DHT22;18379;48.208;-1.518;2023-02-11T05:36:25;2.90;99.90
31809;DHT22;18379;48.208;-1.518;2023-02-11T05:41:26;2.90;99.90
31809;DHT22;18379;48.208;-1.518;2023-02-11T05:46:27;2.80;99.90
31809;DHT22;18379;48.208;-1.518;2023-02-11T05:51:28;2.70;99.90
31809;DHT22;18379;48.208;-1.518;2023-02-11T05:56:29;2.70;99.90
31809;DHT22;18379;48.208;-1.518;2023-02-11T06:01:30;2.70;99.90
31809;DHT22;18379;48.208;-1.518;2023-02-11T06:06:31;2.70;99.90
31809;DHT22;18379;48.208;-1.518;2023-02-11T06:11:31;2.70;99.90
31809;DHT22;18379;48.208;-1.518;2023-02-11T06:16:32;2.60;99.90
31809;DHT22;18379;48.208;-1.518;2023-02-11T06:21:33;2.60;99.90
31809;DHT22;18379;48.208;-1.518;2023-02-11T06:26:34;2.60;99.90
31809;DHT22;18379;48.208;-1.518;2023-02-11T06:31:36;2.60;99.90
31809;DHT22;18379;48.208;-1.518;2023-02-11T06:36:38;2.70;99.90
31809;DHT22;18379;48.208;-1.518;2023-02-11T06:41:40;2.60;99.90
31809;DHT22;18379;48.208;-1.518;2023-02-11T06:46:41;2.60;99.90
31809;DHT22;18379;48.208;-1.518;2023-02-11T06:51:41;2.60;99.90
31809;DHT22;18379;48.208;-1.518;2023-02-11T06:56:42;2.40;99.90
31809;DHT22;18379;48.208;-1.518;2023-02-11T07:01:43;2.40;99.90
31809;DHT22;18379;48.208;-1.518;2023-02-11T07:06:44;2.50;99.90
31809;DHT22;18379;48.208;-1.518;2023-02-11T07:11:45;2.50;99.90
31809;DHT22;18379;48.208;-1.518;2023-02-11T07:16:46;2.50;99.90
31809;DHT22;18379;48.208;-1.518;2023-02-11T07:21:47;2.50;99.90
31809;DHT22;18379;48.208;-1.518;2023-02-11T07:26:48;2.50;99.90
31809;DHT22;18379;48.208;-1.518;2023-02-11T07:31:50;2.50;99.90
31809;DHT22;18379;48.208;-1.518;2023-02-11T07:36:51;2.50;99.90
31809;DHT22;18379;48.208;-1.518;2023-02-11T07:41:52;2.50;99.90
31809;DHT22;18379;48.208;-1.518;2023-02-11T07:46:53;2.50;99.90
31809;DHT22;18379;48.208;-1.518;2023-02-11T07:51:54;2.70;99.90
31809;DHT22;18379;48.208;-1.518;2023-02-11T07:56:55;2.80;99.90
31809;DHT22;18379;48.208;-1.518;2023-02-11T08:01:56;3.00;99.90
31809;DHT22;18379;48.208;-1.518;2023-02-11T08:06:57;3.20;99.90
31809;DHT22;18379;48.208;-1.518;2023-02-11T08:11:59;3.20;99.90
31809;DHT22;18379;48.208;-1.518;2023-02-11T08:16:59;3.20;99.90
31809;DHT22;18379;48.208;-1.518;2023-02-11T08:22:00;3.30;99.90
31809;DHT22;18379;48.208;-1.518;2023-02-11T08:27:01;3.40;99.90
31809;DHT22;18379;48.208;-1.518;2023-02-11T08:32:02;3.60;99.90
31809;DHT22;18379;48.208;-1.518;2023-02-11T08:37:03;3.70;99.90
31809;DHT22;18379;48.208;-1.518;2023-02-11T08:42:04;3.80;99.90
31809;DHT22;18379;48.208;-1.518;2023-02-11T08:47:04;3.90;99.90
31809;DHT22;18379;48.208;-1.518;2023-02-11T08:52:05;4.10;99.90
31809;DHT22;18379;48.208;-1.518;2023-02-11T08:57:06;4.30;99.90
31809;DHT22;18379;48.208;-1.518;2023-02-11T09:02:12;4.50;99.90
31809;DHT22;18379;48.208;-1.518;2023-02-11T09:07:13;4.70;99.90
31809;DHT22;18379;48.208;-1.518;2023-02-11T09:12:14;5.00;99.90
31809;DHT22;18379;48.208;-1.518;2023-02-11T09:17:15;5.10;99.90
31809;DHT22;18379;48.208;-1.518;2023-02-11T09:22:18;5.20;99.90
31809;DHT22;18379;48.208;-1.518;2023-02-11T09:27:19;5.40;99.90
31809;DHT22;18379;48.208;-1.518;2023-02-11T09:32:20;5.60;99.90
31809;DHT22;18379;48.208;-1.518;2023-02-11T09:37:21;5.80;99.90
31809;DHT22;18379;48.208;-1.518;2023-02-11T09:42:48;6.00;99.90
31809;DHT22;18379;48.208;-1.518;2023-02-11T09:47:54;6.30;99.90
31809;DHT22;18379;48.208;-1.518;2023-02-11T09:53:13;6.50;99.90
31809;DHT22;18379;48.208;-1.518;2023-02-11T09:58:25;6.80;99.90
31809;DHT22;18379;48.208;-1.518;2023-02-11T10:19:50;7.10;99.90
31809;DHT22;18379;48.208;-1.518;2023-02-11T10:24:55;7.50;99.90
31809;DHT22;18379;48.208;-1.518;2023-02-11T10:30:18;8.10;99.90
31809;DHT22;18379;48.208;-1.518;2023-02-11T10:35:22;8.40;99.90
31809;DHT22;18379;48.208;-1.518;2023-02-11T10:40:26;8.80;99.90
31809;DHT22;18379;48.208;-1.518;2023-02-11T10:45:32;9.10;99.90
31809;DHT22;18379;48.208;-1.518;2023-02-11T10:50:34;8.90;99.90
31809;DHT22;18379;48.208;-1.518;2023-02-11T10:55:36;8.80;99.90
31809;DHT22;18379;48.208;-1.518;2023-02-11T11:00:41;8.70;99.90
31809;DHT22;18379;48.208;-1.518;2023-02-11T11:05:51;9.40;99.90
31809;DHT22;18379;48.208;-1.518;2023-02-11T11:11:13;9.40;99.90
31809;DHT22;18379;48.208;-1.518;2023-02-11T11:16:17;9.60;99.90
31809;DHT22;18379;48.208;-1.518;2023-02-11T11:21:25;9.80;99.90
31809;DHT22;18379;48.208;-1.518;2023-02-11T11:26:40;9.90;99.90
31809;DHT22;18379;48.208;-1.518;2023-02-11T11:31:48;10.00;99.90
31809;DHT22;18379;48.208;-1.518;2023-02-11T11:36:50;10.10;99.90
31809;DHT22;18379;48.208;-1.518;2023-02-11T11:41:58;10.50;99.90
31809;DHT22;18379;48.208;-1.518;2023-02-11T11:57:39;11.00;99.90
31809;DHT22;18379;48.208;-1.518;2023-02-11T12:02:47;10.80;99.90
31809;DHT22;18379;48.208;-1.518;2023-02-11T12:13:25;11.80;99.90
31809;DHT22;18379;48.208;-1.518;2023-02-11T12:40:14;14.00;99.90
31809;DHT22;18379;48.208;-1.518;2023-02-11T12:45:19;14.10;99.90
31809;DHT22;18379;48.208;-1.518;2023-02-11T12:55:59;12.80;99.90
31809;DHT22;18379;48.208;-1.518;2023-02-11T13:01:18;12.90;99.90
31809;DHT22;18379;48.208;-1.518;2023-02-11T13:06:43;13.40;99.90
31809;DHT22;18379;48.208;-1.518;2023-02-11T13:11:49;13.60;99.90
31809;DHT22;18379;48.208;-1.518;2023-02-11T13:16:54;13.80;99.90
31809;DHT22;18379;48.208;-1.518;2023-02-11T13:27:14;13.90;99.90
31809;DHT22;18379;48.208;-1.518;2023-02-11T13:32:20;14.20;99.90
31809;DHT22;18379;48.208;-1.518;2023-02-11T13:42:23;13.90;99.90
31809;DHT22;18379;48.208;-1.518;2023-02-11T13:47:26;13.90;99.90
31809;DHT22;18379;48.208;-1.518;2023-02-11T13:52:33;13.30;99.90
31809;DHT22;18379;48.208;-1.518;2023-02-11T13:57:36;13.30;99.90
31809;DHT22;18379;48.208;-1.518;2023-02-11T14:02:37;13.70;99.90
31809;DHT22;18379;48.208;-1.518;2023-02-11T14:13:32;14.40;99.90
31809;DHT22;18379;48.208;-1.518;2023-02-11T14:23:38;14.50;99.90
31809;DHT22;18379;48.208;-1.518;2023-02-11T14:28:41;15.20;99.90
31809;DHT22;18379;48.208;-1.518;2023-02-11T14:44:54;15.40;99.90
31809;DHT22;18379;48.208;-1.518;2023-02-11T14:49:57;15.70;99.90
31809;DHT22;18379;48.208;-1.518;2023-02-11T14:55:05;16.30;99.90
31809;DHT22;18379;48.208;-1.518;2023-02-11T15:00:18;16.40;99.90
31809;DHT22;18379;48.208;-1.518;2023-02-11T15:05:27;16.10;99.90
31809;DHT22;18379;48.208;-1.518;2023-02-11T15:10:35;16.30;99.90
31809;DHT22;18379;48.208;-1.518;2023-02-11T15:15:38;16.20;99.90
31809;DHT22;18379;48.208;-1.518;2023-02-11T15:20:40;16.40;99.90
31809;DHT22;18379;48.208;-1.518;2023-02-11T15:25:44;16.00;99.90
31809;DHT22;18379;48.208;-1.518;2023-02-11T15:31:14;15.90;99.90
31809;DHT22;18379;48.208;-1.518;2023-02-11T15:36:16;16.10;99.90
31809;DHT22;18379;48.208;-1.518;2023-02-11T15:41:34;16.00;99.90
31809;DHT22;18379;48.208;-1.518;2023-02-11T15:46:39;16.50;99.90
31809;DHT22;18379;48.208;-1.518;2023-02-11T15:51:44;16.80;99.90
31809;DHT22;18379;48.208;-1.518;2023-02-11T15:56:50;16.30;99.90
31809;DHT22;18379;48.208;-1.518;2023-02-11T16:01:52;16.20;99.90
31809;DHT22;18379;48.208;-1.518;2023-02-11T16:06:54;15.90;99.90
31809;DHT22;18379;48.208;-1.518;2023-02-11T16:11:57;15.80;99.90
31809;DHT22;18379;48.208;-1.518;2023-02-11T16:17:31;15.70;99.90
31809;DHT22;18379;48.208;-1.518;2023-02-11T16:22:32;15.40;99.90
31809;DHT22;18379;48.208;-1.518;2023-02-11T16:27:40;15.10;99.90
31809;DHT22;18379;48.208;-1.518;2023-02-11T16:32:41;14.40;99.90
31809;DHT22;18379;48.208;-1.518;2023-02-11T16:37:42;13.60;99.90
31809;DHT22;18379;48.208;-1.518;2023-02-11T16:42:43;13.30;99.90
31809;DHT22;18379;48.208;-1.518;2023-02-11T16:47:45;13.00;99.90
31809;DHT22;18379;48.208;-1.518;2023-02-11T16:52:47;12.10;99.90
31809;DHT22;18379;48.208;-1.518;2023-02-11T16:57:50;11.40;99.90
31809;DHT22;18379;48.208;-1.518;2023-02-11T17:02:51;11.10;99.90
31809;DHT22;18379;48.208;-1.518;2023-02-11T17:07:52;10.80;99.90
31809;DHT22;18379;48.208;-1.518;2023-02-11T17:12:53;10.60;99.90
31809;DHT22;18379;48.208;-1.518;2023-02-11T17:17:54;10.40;99.90
31809;DHT22;18379;48.208;-1.518;2023-02-11T17:22:55;10.30;99.90
31809;DHT22;18379;48.208;-1.518;2023-02-11T17:27:55;10.20;99.90
31809;DHT22;18379;48.208;-1.518;2023-02-11T17:32:56;10.10;99.90
31809;DHT22;18379;48.208;-1.518;2023-02-11T17:37:57;9.90;99.90
31809;DHT22;18379;48.208;-1.518;2023-02-11T17:42:58;9.80;99.90
31809;DHT22;18379;48.208;-1.518;2023-02-11T17:47:59;9.70;99.90
31809;DHT22;18379;48.208;-1.518;2023-02-11T17:53:00;9.60;99.90
31809;DHT22;18379;48.208;-1.518;2023-02-11T17:58:01;9.50;99.90
31809;DHT22;18379;48.208;-1.518;2023-02-11T18:03:02;9.30;99.90
31809;DHT22;18379;48.208;-1.518;2023-02-11T18:08:10;9.20;99.90
31809;DHT22;18379;48.208;-1.518;2023-02-11T18:13:11;9.00;99.90
31809;DHT22;18379;48.208;-1.518;2023-02-11T18:18:13;8.80;99.90
31809;DHT22;18379;48.208;-1.518;2023-02-11T18:23:14;8.70;99.90
31809;DHT22;18379;48.208;-1.518;2023-02-11T18:28:15;8.50;99.90
31809;DHT22;18379;48.208;-1.518;2023-02-11T18:33:15;8.40;99.90
31809;DHT22;18379;48.208;-1.518;2023-02-11T18:38:17;8.20;99.90
31809;DHT22;18379;48.208;-1.518;2023-02-11T18:43:21;8.10;99.90
31809;DHT22;18379;48.208;-1.518;2023-02-11T18:48:23;8.00;99.90
31809;DHT22;18379;48.208;-1.518;2023-02-11T18:53:26;7.90;99.90
31809;DHT22;18379;48.208;-1.518;2023-02-11T18:58:26;7.80;99.90
31809;DHT22;18379;48.208;-1.518;2023-02-11T19:03:27;7.80;99.90
31809;DHT22;18379;48.208;-1.518;2023-02-11T19:08:29;7.60;99.90
31809;DHT22;18379;48.208;-1.518;2023-02-11T19:13:32;7.60;99.90
31809;DHT22;18379;48.208;-1.518;2023-02-11T19:18:33;7.50;99.90
31809;DHT22;18379;48.208;-1.518;2023-02-11T19:23:35;7.40;99.90
31809;DHT22;18379;48.208;-1.518;2023-02-11T19:28:36;7.30;99.90
31809;DHT22;18379;48.208;-1.518;2023-02-11T19:33:37;7.20;99.90
31809;DHT22;18379;48.208;-1.518;2023-02-11T19:38:38;7.20;99.90
31809;DHT22;18379;48.208;-1.518;2023-02-11T19:43:39;7.10;99.90
31809;DHT22;18379;48.208;-1.518;2023-02-11T19:48:40;7.00;99.90
31809;DHT22;18379;48.208;-1.518;2023-02-11T19:53:43;6.90;99.90
31809;DHT22;18379;48.208;-1.518;2023-02-11T19:58:45;6.80;99.90
31809;DHT22;18379;48.208;-1.518;2023-02-11T20:03:51;6.80;99.90
31809;DHT22;18379;48.208;-1.518;2023-02-11T20:09:13;6.70;99.90
31809;DHT22;18379;48.208;-1.518;2023-02-11T20:14:14;6.70;99.90
31809;DHT22;18379;48.208;-1.518;2023-02-11T20:19:20;6.60;99.90
31809;DHT22;18379;48.208;-1.518;2023-02-11T20:24:22;6.50;99.90
31809;DHT22;18379;48.208;-1.518;2023-02-11T20:29:24;6.40;99.90
31809;DHT22;18379;48.208;-1.518;2023-02-11T20:34:25;6.40;99.90
31809;DHT22;18379;48.208;-1.518;2023-02-11T20:39:26;6.40;99.90
31809;DHT22;18379;48.208;-1.518;2023-02-11T20:44:26;6.40;99.90
31809;DHT22;18379;48.208;-1.518;2023-02-11T20:49:27;6.30;99.90
31809;DHT22;18379;48.208;-1.518;2023-02-11T20:54:28;6.30;99.90
31809;DHT22;18379;48.208;-1.518;2023-02-11T20:59:29;6.20;99.90
31809;DHT22;18379;48.208;-1.518;2023-02-11T21:04:31;6.20;99.90
31809;DHT22;18379;48.208;-1.518;2023-02-11T21:09:32;6.10;99.90
31809;DHT22;18379;48.208;-1.518;2023-02-11T21:14:33;6.10;99.90
31809;DHT22;18379;48.208;-1.518;2023-02-11T21:19:34;6.10;99.90
31809;DHT22;18379;48.208;-1.518;2023-02-11T21:24:35;6.00;99.90
31809;DHT22;18379;48.208;-1.518;2023-02-11T21:29:35;6.00;99.90
31809;DHT22;18379;48.208;-1.518;2023-02-11T21:34:36;5.90;99.90
31809;DHT22;18379;48.208;-1.518;2023-02-11T21:39:37;5.80;99.90
31809;DHT22;18379;48.208;-1.518;2023-02-11T21:44:38;5.80;99.90
31809;DHT22;18379;48.208;-1.518;2023-02-11T21:49:38;5.80;99.90
31809;DHT22;18379;48.208;-1.518;2023-02-11T21:54:39;5.70;99.90
31809;DHT22;18379;48.208;-1.518;2023-02-11T21:59:40;5.70;99.90
31809;DHT22;18379;48.208;-1.518;2023-02-11T22:04:41;5.60;99.90
31809;DHT22;18379;48.208;-1.518;2023-02-11T22:09:42;5.60;99.90
31809;DHT22;18379;48.208;-1.518;2023-02-11T22:14:43;5.60;99.90
31809;DHT22;18379;48.208;-1.518;2023-02-11T22:19:43;5.60;99.90
31809;DHT22;18379;48.208;-1.518;2023-02-11T22:24:45;5.60;99.90
31809;DHT22;18379;48.208;-1.518;2023-02-11T22:29:45;5.50;99.90
31809;DHT22;18379;48.208;-1.518;2023-02-11T22:34:46;5.50;99.90
31809;DHT22;18379;48.208;-1.518;2023-02-11T22:39:47;5.50;99.90
31809;DHT22;18379;48.208;-1.518;2023-02-11T22:44:48;5.40;99.90
31809;DHT22;18379;48.208;-1.518;2023-02-11T22:49:49;5.40;99.90
31809;DHT22;18379;48.208;-1.518;2023-02-11T22:54:50;5.40;99.90
31809;DHT22;18379;48.208;-1.518;2023-02-11T22:59:51;5.30;99.90
31809;DHT22;18379;48.208;-1.518;2023-02-11T23:04:52;5.30;99.90
31809;DHT22;18379;48.208;-1.518;2023-02-11T23:09:53;5.30;99.90
31809;DHT22;18379;48.208;-1.518;2023-02-11T23:14:54;5.20;99.90
31809;DHT22;18379;48.208;-1.518;2023-02-11T23:19:54;5.20;99.90
31809;DHT22;18379;48.208;-1.518;2023-02-11T23:24:55;5.10;99.90
31809;DHT22;18379;48.208;-1.518;2023-02-11T23:29:56;5.10;99.90
31809;DHT22;18379;48.208;-1.518;2023-02-11T23:34:57;5.10;99.90
31809;DHT22;18379;48.208;-1.518;2023-02-11T23:39:57;5.00;99.90
31809;DHT22;18379;48.208;-1.518;2023-02-11T23:44:58;5.00;99.90
31809;DHT22;18379;48.208;-1.518;2023-02-11T23:49:59;5.00;99.90
31809;DHT22;18379;48.208;-1.518;2023-02-11T23:55:00;5.00;99.90
